Time;durP1;ratioP1;P1;durP2;ratioP2;P2;SDS_P1;SDS_P2;PMS_P1;PMS_P2;Temp;Humidity;BMP_temperature;BMP_pressure;BME280_temperature;BME280_humidity;BME280_pressure;Samples;Min_cycle;Max_cycle;Signal;HPM_P1;HPM_P2
2021/12/07 00:00:24;;;;;;;3.23;2.93;;;3.50;99.90;;;;;;2614563;51;20410;-76
2021/12/07 00:02:50;;;;;;;4.37;4.07;;;3.60;99.90;;;;;;2614043;47;20510;-75
2021/12/07 00:05:16;;;;;;;4.50;4.10;;;3.70;99.90;;;;;;2614107;54;20489;-75
2021/12/07 00:07:43;;;;;;;3.93;3.63;;;3.80;99.90;;;;;;2614522;39;20848;-76
2021/12/07 00:10:11;;;;;;;4.40;3.80;;;3.80;99.90;;;;;;2614259;47;20403;-75
2021/12/07 00:12:41;;;;;;;3.97;3.60;;;3.70;99.90;;;;;;2614600;47;21032;-78
2021/12/07 00:15:09;;;;;;;9.07;4.13;;;3.80;99.90;;;;;;2615003;54;20411;-75
2021/12/07 00:17:35;;;;;;;4.10;3.70;;;3.60;99.90;;;;;;2614598;39;20851;-74
2021/12/07 00:20:04;;;;;;;3.93;3.63;;;3.50;99.90;;;;;;2615616;47;20427;-77
2021/12/07 00:22:30;;;;;;;4.40;3.50;;;3.60;99.90;;;;;;2614460;54;20411;-76
2021/12/07 00:24:56;;;;;;;3.47;3.17;;;3.70;99.90;;;;;;2616835;31;20920;-76
2021/12/07 00:27:22;;;;;;;3.27;2.97;;;3.70;99.90;;;;;;2615580;54;20147;-76
2021/12/07 00:29:47;;;;;;;4.10;3.20;;;3.80;99.90;;;;;;2615987;54;20158;-76
2021/12/07 00:32:34;;;;;;;3.27;3.07;;;3.60;99.90;;;;;;2614486;54;20171;-76
2021/12/07 00:37:29;;;;;;;3.70;3.40;;;3.80;99.90;;;;;;2615570;54;20400;-76
2021/12/07 00:39:56;;;;;;;3.27;2.97;;;3.70;99.90;;;;;;2614875;47;21003;-75
2021/12/07 00:42:23;;;;;;;2.23;2.07;;;3.80;99.90;;;;;;2615495;46;20519;-76
2021/12/07 00:44:49;;;;;;;2.67;2.47;;;3.60;99.90;;;;;;2615670;47;20550;-77
2021/12/07 00:47:15;;;;;;;2.90;2.70;;;3.50;99.90;;;;;;2616377;54;20403;-75
2021/12/07 00:49:42;;;;;;;2.53;2.33;;;3.70;99.90;;;;;;2615992;54;20540;-77
2021/12/07 00:52:12;;;;;;;3.77;3.37;;;3.80;99.90;;;;;;2615240;39;20992;-78
2021/12/07 00:54:39;;;;;;;3.57;3.17;;;3.60;99.90;;;;;;2614875;54;20443;-76
2021/12/07 00:57:05;;;;;;;3.10;2.90;;;3.60;99.90;;;;;;2615518;47;20427;-77
2021/12/07 00:59:31;;;;;;;4.40;3.40;;;3.50;99.90;;;;;;2614501;47;20848;-76
2021/12/07 01:01:58;;;;;;;4.13;3.30;;;3.60;99.90;;;;;;2615574;47;20423;-76
2021/12/07 01:04:27;;;;;;;4.83;3.47;;;3.60;99.90;;;;;;2614666;47;20416;-77
2021/12/07 01:25:54;;;;;;;4.97;3.93;;;3.30;99.90;;;;;;2616391;47;20444;-76
2021/12/07 01:31:02;;;;;;;6.97;3.77;;;3.10;99.90;;;;;;2616599;54;20400;-76
2021/12/07 01:34:16;;;;;;;4.73;4.30;;;3.00;99.90;;;;;;2615022;47;20399;-77
2021/12/07 01:45:09;;;;;;;8.37;6.70;;;3.00;99.90;;;;;;2615954;54;20395;-75
2021/12/07 01:47:55;;;;;;;9.13;7.10;;;3.00;99.90;;;;;;2615761;47;20406;-76
2021/12/07 01:57:45;;;;;;;5.73;4.90;;;2.70;99.90;;;;;;2615975;47;20418;-77
2021/12/07 02:00:51;;;;;;;7.77;6.87;;;2.50;99.90;;;;;;2614889;47;20375;-76
2021/12/07 02:03:17;;;;;;;8.87;6.87;;;2.60;99.90;;;;;;2614464;47;21048;-76
2021/12/07 02:05:58;;;;;;;4.23;3.57;;;2.50;99.90;;;;;;2615484;54;20422;-76
2021/12/07 02:08:24;;;;;;;8.90;5.33;;;2.40;99.90;;;;;;2614744;47;20426;-77
2021/12/07 02:10:55;;;;;;;7.23;5.07;;;2.40;99.90;;;;;;2614726;46;20966;-77
2021/12/07 02:15:50;;;;;;;10.50;6.73;;;2.30;99.90;;;;;;2614971;47;20406;-77
2021/12/07 02:18:22;;;;;;;13.13;9.50;;;2.30;99.90;;;;;;2615477;39;20841;-76
2021/12/07 02:20:49;;;;;;;10.70;7.80;;;2.30;99.90;;;;;;2615793;47;20403;-76
2021/12/07 02:23:16;;;;;;;11.53;9.17;;;2.40;99.90;;;;;;2613966;47;20526;-76
2021/12/07 02:25:43;;;;;;;9.90;6.80;;;2.30;99.90;;;;;;2615510;47;20444;-77
2021/12/07 02:28:15;;;;;;;13.40;9.23;;;2.40;99.90;;;;;;2614878;54;20524;-78
2021/12/07 02:30:43;;;;;;;11.27;8.77;;;2.40;99.90;;;;;;2614809;47;20424;-77
2021/12/07 02:33:10;;;;;;;10.50;8.43;;;2.60;99.90;;;;;;2614747;47;20415;-77
2021/12/07 02:35:37;;;;;;;13.70;9.20;;;2.60;99.90;;;;;;2615450;47;20499;-75
2021/12/07 02:38:05;;;;;;;20.00;10.17;;;2.60;99.90;;;;;;2615274;47;20396;-76
2021/12/07 02:40:34;;;;;;;17.13;10.77;;;2.60;99.90;;;;;;2614060;39;20987;-74
2021/12/07 02:43:01;;;;;;;17.07;9.30;;;2.60;99.90;;;;;;2614971;54;20439;-75
2021/12/07 02:45:27;;;;;;;15.70;10.60;;;2.80;99.90;;;;;;2615232;47;20415;-76
2021/12/07 02:47:53;;;;;;;13.53;10.03;;;2.80;99.90;;;;;;2615276;47;20415;-76
2021/12/07 02:50:19;;;;;;;18.03;13.30;;;2.80;99.90;;;;;;2615836;47;20542;-76
2021/12/07 02:52:45;;;;;;;14.20;10.77;;;2.70;99.90;;;;;;2614831;47;20171;-75
2021/12/07 02:55:13;;;;;;;15.10;11.80;;;3.10;99.90;;;;;;2615365;39;20916;-75
2021/12/07 02:57:39;;;;;;;20.97;12.77;;;3.30;99.90;;;;;;2614651;54;20321;-76
2021/12/07 03:00:15;;;;;;;20.10;12.80;;;3.30;99.90;;;;;;2615187;47;20438;-76
2021/12/07 03:02:46;;;;;;;18.30;12.57;;;3.60;99.90;;;;;;2614715;54;20498;-77
2021/12/07 03:27:34;;;;;;;26.33;16.77;;;3.40;99.90;;;;;;2614980;47;20398;-76
2021/12/07 03:30:02;;;;;;;26.70;17.33;;;3.60;99.90;;;;;;2615361;47;20447;-76
2021/12/07 03:32:31;;;;;;;28.03;16.43;;;3.70;99.90;;;;;;2615135;47;20433;-76
2021/12/07 03:34:57;;;;;;;22.70;16.67;;;3.70;99.90;;;;;;2615667;54;20408;-75
2021/12/07 03:37:23;;;;;;;25.40;18.77;;;3.50;99.90;;;;;;2614936;39;20912;-76
2021/12/07 03:39:49;;;;;;;29.73;19.03;;;3.50;99.90;;;;;;2613613;47;20660;-75
2021/12/07 03:42:16;;;;;;;27.73;19.03;;;3.40;99.90;;;;;;2612231;54;20395;-79
2021/12/07 03:44:42;;;;;;;31.03;19.70;;;3.70;99.90;;;;;;2613906;51;20526;-76
2021/12/07 03:47:09;;;;;;;23.07;17.10;;;3.60;99.90;;;;;;2616214;54;20437;-76
2021/12/07 03:49:34;;;;;;;30.70;19.10;;;3.60;99.90;;;;;;2615747;47;20506;-76
2021/12/07 03:52:01;;;;;;;31.33;19.87;;;3.50;99.90;;;;;;2615106;47;20843;-75
2021/12/07 03:54:27;;;;;;;44.97;19.40;;;3.60;99.90;;;;;;2615165;47;20162;-75
2021/12/07 03:56:53;;;;;;;20.57;14.03;;;3.60;99.90;;;;;;2616088;54;20414;-75
2021/12/07 03:59:19;;;;;;;32.43;20.00;;;3.60;99.90;;;;;;2615173;54;20267;-77
2021/12/07 04:01:45;;;;;;;28.27;20.20;;;3.70;99.90;;;;;;2615319;39;20636;-76
2021/12/07 04:04:12;;;;;;;32.70;20.73;;;3.90;99.90;;;;;;2615254;47;20450;-75
2021/12/07 04:06:38;;;;;;;28.10;18.20;;;3.90;99.90;;;;;;2614931;47;20441;-77
2021/12/07 04:09:05;;;;;;;24.63;16.20;;;4.00;99.90;;;;;;2615481;47;20395;-76
2021/12/07 04:11:33;;;;;;;25.03;16.97;;;4.10;99.90;;;;;;2615272;54;20973;-75
2021/12/07 04:13:59;;;;;;;31.53;19.50;;;3.90;99.90;;;;;;2613702;54;21064;-76
2021/12/07 04:16:27;;;;;;;25.10;18.60;;;4.00;99.90;;;;;;2615085;47;20425;-76
2021/12/07 04:18:55;;;;;;;27.77;18.53;;;4.10;99.90;;;;;;2614458;47;20436;-77
2021/12/07 04:21:21;;;;;;;28.30;19.27;;;4.20;99.90;;;;;;2615118;47;20404;-76
2021/12/07 04:23:47;;;;;;;27.37;18.50;;;4.40;99.90;;;;;;2614636;47;20163;-76
2021/12/07 04:26:14;;;;;;;28.73;18.07;;;4.30;99.90;;;;;;2615267;54;20443;-76
2021/12/07 04:28:40;;;;;;;23.13;16.80;;;4.60;99.90;;;;;;2614701;54;20463;-76
2021/12/07 04:31:07;;;;;;;29.27;17.17;;;4.50;99.90;;;;;;2615322;46;20980;-75
2021/12/07 04:33:35;;;;;;;21.40;15.33;;;4.40;99.90;;;;;;2613284;47;20975;-76
2021/12/07 04:36:01;;;;;;;17.63;14.60;;;4.40;99.90;;;;;;2614932;47;20423;-75
2021/12/07 04:38:28;;;;;;;18.93;13.33;;;4.30;99.90;;;;;;2614537;54;20412;-77
2021/12/07 04:40:54;;;;;;;21.00;15.60;;;4.30;99.90;;;;;;2615202;47;20399;-77
2021/12/07 04:43:20;;;;;;;23.37;14.33;;;4.30;99.90;;;;;;2615033;54;22159;-77
2021/12/07 04:58:58;;;;;;;28.73;16.37;;;4.30;99.90;;;;;;2615160;54;20936;-76
2021/12/07 05:01:26;;;;;;;25.70;16.20;;;4.30;99.90;;;;;;2615950;54;20426;-76
2021/12/07 05:03:56;;;;;;;23.53;15.60;;;4.30;99.90;;;;;;2615401;47;20419;-75
2021/12/07 05:06:26;;;;;;;26.90;13.53;;;4.20;99.90;;;;;;2615919;39;20847;-75
2021/12/07 05:09:20;;;;;;;22.57;15.03;;;4.30;99.90;;;;;;2615110;54;20529;-75
2021/12/07 05:14:30;;;;;;;16.03;13.00;;;4.20;99.90;;;;;;2614626;39;20891;-75
2021/12/07 05:38:21;;;;;;;15.90;10.97;;;4.30;99.90;;;;;;2614763;39;20838;-75
2021/12/07 05:40:46;;;;;;;14.80;13.20;;;4.30;99.90;;;;;;2613474;54;20460;-75
2021/12/07 05:43:12;;;;;;;18.63;11.43;;;4.30;99.90;;;;;;2613768;54;20395;-75
2021/12/07 05:45:39;;;;;;;14.70;8.83;;;4.30;99.90;;;;;;2614860;54;20244;-76
2021/12/07 05:48:06;;;;;;;19.30;9.63;;;4.40;99.90;;;;;;2613807;47;20195;-76
2021/12/07 05:50:34;;;;;;;29.87;8.60;;;4.50;99.90;;;;;;2612751;54;20411;-76
2021/12/07 05:53:01;;;;;;;14.83;9.97;;;4.40;99.90;;;;;;2614025;54;20424;-77
2021/12/07 05:55:27;;;;;;;17.67;10.37;;;4.50;99.90;;;;;;2614968;39;20828;-76
2021/12/07 05:57:54;;;;;;;13.80;7.00;;;4.40;99.90;;;;;;2615237;47;20432;-75
2021/12/07 06:00:28;;;;;;;10.60;5.83;;;4.50;99.90;;;;;;2614719;47;20511;-76
2021/12/07 06:03:00;;;;;;;16.70;10.50;;;4.50;99.90;;;;;;2615458;47;20416;-77
2021/12/07 06:05:28;;;;;;;10.60;7.63;;;4.60;99.90;;;;;;2614944;54;20444;-76
2021/12/07 06:07:55;;;;;;;14.00;6.50;;;4.60;99.90;;;;;;2614337;54;20411;-76
2021/12/07 06:10:22;;;;;;;17.33;10.17;;;4.60;99.90;;;;;;2613469;46;20515;-78
2021/12/07 06:12:47;;;;;;;20.23;8.27;;;4.60;99.90;;;;;;2614134;47;20423;-77
2021/12/07 06:15:17;;;;;;;21.67;8.27;;;4.60;99.90;;;;;;2614310;39;20806;-78
2021/12/07 06:17:44;;;;;;;17.97;8.03;;;4.50;99.90;;;;;;2614830;39;20655;-75
2021/12/07 06:20:10;;;;;;;12.27;5.83;;;4.50;99.90;;;;;;2614656;54;20430;-75
2021/12/07 06:22:36;;;;;;;9.77;6.83;;;4.50;99.90;;;;;;2614817;54;21062;-79
2021/12/07 06:25:03;;;;;;;17.67;9.47;;;4.50;99.90;;;;;;2615595;54;20944;-76
2021/12/07 06:27:29;;;;;;;20.30;7.93;;;4.50;99.90;;;;;;2614188;54;20171;-76
2021/12/07 06:29:55;;;;;;;25.20;10.50;;;4.60;99.90;;;;;;2615744;54;20956;-75
2021/12/07 06:32:20;;;;;;;22.70;9.53;;;4.70;99.90;;;;;;2615192;54;20155;-76
2021/12/07 06:34:46;;;;;;;15.53;7.97;;;4.60;99.90;;;;;;2615210;54;20155;-77
2021/12/07 06:37:12;;;;;;;20.67;9.70;;;4.60;99.90;;;;;;2614761;47;20284;-78
2021/12/07 06:39:38;;;;;;;17.90;10.37;;;4.60;99.90;;;;;;2613176;47;20254;-76
2021/12/07 06:42:04;;;;;;;17.57;9.70;;;4.70;99.90;;;;;;2614043;31;20619;-76
2021/12/07 06:44:30;;;;;;;6.23;4.53;;;4.80;99.90;;;;;;2614658;54;20167;-75
2021/12/07 06:46:56;;;;;;;14.93;8.90;;;4.60;99.90;;;;;;2615048;47;21012;-75
2021/12/07 06:49:22;;;;;;;21.17;10.23;;;4.50;99.90;;;;;;2614295;47;20430;-76
2021/12/07 06:51:50;;;;;;;21.63;10.90;;;4.50;99.90;;;;;;2614596;54;20404;-77
2021/12/07 06:54:15;;;;;;;7.70;5.77;;;4.60;99.90;;;;;;2614437;54;20174;-75
2021/12/07 06:56:41;;;;;;;10.63;7.47;;;4.50;99.90;;;;;;2613937;39;20467;-75
2021/12/07 06:59:07;;;;;;;23.27;11.10;;;4.50;99.90;;;;;;2614040;54;20195;-75
2021/12/07 07:01:33;;;;;;;16.40;8.10;;;4.60;99.90;;;;;;2613713;47;20408;-76
2021/12/07 07:04:00;;;;;;;12.00;7.17;;;4.70;99.90;;;;;;2613915;47;20163;-74
2021/12/07 07:06:26;;;;;;;7.27;6.20;;;4.60;99.90;;;;;;2610883;47;20449;-75
2021/12/07 07:08:52;;;;;;;22.57;12.03;;;4.70;99.90;;;;;;2612342;54;20430;-75
2021/12/07 07:11:19;;;;;;;12.60;7.97;;;4.70;99.90;;;;;;2612470;54;20424;-75
2021/12/07 07:13:46;;;;;;;16.90;7.10;;;4.70;99.90;;;;;;2614589;47;20170;-75
2021/12/07 07:16:13;;;;;;;22.67;8.60;;;4.70;99.90;;;;;;2614391;54;20445;-75
2021/12/07 07:18:39;;;;;;;15.07;9.83;;;4.70;99.90;;;;;;2615493;39;20865;-75
2021/12/07 07:21:08;;;;;;;26.70;12.60;;;4.70;99.90;;;;;;2612926;54;20408;-75
2021/12/07 07:23:35;;;;;;;14.47;7.97;;;4.90;99.90;;;;;;2613541;54;20408;-75
2021/12/07 07:26:01;;;;;;;17.10;9.87;;;4.80;99.90;;;;;;2614329;54;20415;-77
2021/12/07 07:28:29;;;;;;;21.63;10.43;;;4.70;99.90;;;;;;2614732;39;20797;-75
2021/12/07 07:30:58;;;;;;;7.30;5.70;;;4.60;99.90;;;;;;2611692;39;20868;-76
2021/12/07 07:33:24;;;;;;;22.20;11.10;;;4.60;99.90;;;;;;2612560;54;20403;-76
2021/12/07 07:35:52;;;;;;;18.00;11.60;;;4.70;99.90;;;;;;2613184;54;20440;-77
2021/12/07 07:38:18;;;;;;;30.50;13.90;;;4.70;99.90;;;;;;2609503;54;20159;-76
2021/12/07 07:40:46;;;;;;;17.60;8.47;;;4.70;99.90;;;;;;2612119;39;20927;-79
2021/12/07 07:43:13;;;;;;;22.67;10.83;;;4.70;99.90;;;;;;2611648;47;20222;-75
2021/12/07 07:45:55;;;;;;;22.40;13.90;;;4.60;99.90;;;;;;2611394;54;20383;-77
2021/12/07 07:48:22;;;;;;;19.23;12.40;;;4.60;99.90;;;;;;2610186;47;20436;-76
2021/12/07 07:50:50;;;;;;;8.17;7.07;;;4.50;99.90;;;;;;2611602;47;20530;-76
2021/12/07 07:53:16;;;;;;;18.97;13.47;;;4.50;99.90;;;;;;2610079;54;20956;-76
2021/12/07 07:55:43;;;;;;;24.30;14.60;;;4.40;99.90;;;;;;2613622;47;20411;-77
2021/12/07 07:58:11;;;;;;;17.93;11.83;;;4.40;99.90;;;;;;2614872;54;20427;-78
2021/12/07 08:00:39;;;;;;;29.20;13.07;;;4.40;99.90;;;;;;2614722;47;20960;-78
2021/12/07 08:03:05;;;;;;;27.10;13.77;;;4.40;99.90;;;;;;2614588;54;20435;-76
2021/12/07 08:05:31;;;;;;;32.67;14.13;;;4.30;99.90;;;;;;2613481;54;20412;-76
2021/12/07 08:07:57;;;;;;;25.17;18.47;;;4.30;99.90;;;;;;2612709;47;20443;-75
2021/12/07 08:10:28;;;;;;;35.33;18.87;;;4.40;99.90;;;;;;2612771;54;20439;-75
2021/12/07 08:13:00;;;;;;;28.30;18.00;;;4.40;99.90;;;;;;2611845;54;20435;-76
2021/12/07 08:15:28;;;;;;;30.87;18.57;;;4.30;99.90;;;;;;2612685;54;20968;-76
2021/12/07 08:17:54;;;;;;;21.23;14.57;;;4.30;99.90;;;;;;2612679;54;20420;-74
2021/12/07 08:20:22;;;;;;;14.70;10.70;;;4.20;99.90;;;;;;2611532;54;20424;-76
2021/12/07 08:22:48;;;;;;;26.60;17.37;;;4.20;99.90;;;;;;2610699;47;20422;-75
2021/12/07 08:25:14;;;;;;;33.83;18.77;;;4.20;99.90;;;;;;2610098;39;21174;-78
2021/12/07 08:27:40;;;;;;;36.83;15.90;;;4.10;99.90;;;;;;2609500;54;20451;-76
2021/12/07 08:30:08;;;;;;;25.80;19.60;;;4.20;99.90;;;;;;2610234;39;20928;-77
2021/12/07 08:32:34;;;;;;;30.37;16.70;;;4.10;99.90;;;;;;2612740;46;20595;-76
2021/12/07 08:35:01;;;;;;;27.13;18.03;;;4.10;99.90;;;;;;2611543;54;21435;-76
2021/12/07 08:37:27;;;;;;;23.23;13.73;;;4.30;99.90;;;;;;2610961;54;20399;-75
2021/12/07 08:39:53;;;;;;;25.73;13.80;;;4.20;99.90;;;;;;2611726;47;20555;-77
2021/12/07 08:42:19;;;;;;;22.23;14.57;;;4.40;99.90;;;;;;2609556;46;20555;-77
2021/12/07 08:44:46;;;;;;;33.87;20.33;;;4.30;99.90;;;;;;2612127;54;20169;-75
2021/12/07 08:47:12;;;;;;;18.33;11.60;;;4.30;99.90;;;;;;2610254;47;20428;-76
2021/12/07 08:49:38;;;;;;;27.77;16.73;;;4.30;99.90;;;;;;2612574;54;20472;-75
2021/12/07 08:52:05;;;;;;;38.33;17.30;;;4.50;99.90;;;;;;2612144;39;20859;-76
2021/12/07 08:59:45;;;;;;;30.57;17.20;;;4.90;99.90;;;;;;2611372;47;20450;-75
2021/12/07 09:02:14;;;;;;;27.27;16.67;;;5.00;99.90;;;;;;2611519;54;20402;-74
2021/12/07 09:04:40;;;;;;;14.97;12.30;;;5.30;99.90;;;;;;2612819;54;20475;-75
2021/12/07 09:07:06;;;;;;;23.73;16.63;;;5.40;99.90;;;;;;2612513;39;21260;-76
2021/12/07 09:09:33;;;;;;;18.83;12.70;;;5.30;99.90;;;;;;2611812;54;20432;-75
2021/12/07 09:11:59;;;;;;;23.10;14.30;;;5.20;99.90;;;;;;2612578;54;20431;-75
2021/12/07 09:14:26;;;;;;;29.13;16.60;;;5.20;99.90;;;;;;2611920;54;20960;-76
2021/12/07 09:16:53;;;;;;;23.97;14.77;;;5.30;99.90;;;;;;2613677;39;20872;-75
2021/12/07 09:19:20;;;;;;;27.70;14.90;;;5.50;99.90;;;;;;2612074;39;20986;-75
2021/12/07 09:21:45;;;;;;;23.77;13.30;;;5.50;99.90;;;;;;2611622;39;20795;-75
2021/12/07 09:24:11;;;;;;;20.97;12.27;;;5.70;99.90;;;;;;2609798;47;20431;-76
2021/12/07 09:26:37;;;;;;;16.60;10.20;;;5.40;99.90;;;;;;2612201;47;20166;-76
2021/12/07 09:29:05;;;;;;;25.33;9.50;;;5.30;99.90;;;;;;2611786;31;20953;-74
2021/12/07 09:31:31;;;;;;;21.60;12.60;;;5.90;99.90;;;;;;2610693;54;20435;-77
2021/12/07 09:33:57;;;;;;;11.23;9.30;;;6.20;99.90;;;;;;2612076;39;20762;-76
2021/12/07 09:36:25;;;;;;;13.40;8.27;;;5.70;99.90;;;;;;2611365;54;21020;-75
2021/12/07 09:38:51;;;;;;;17.10;10.77;;;5.40;99.90;;;;;;2610277;39;20881;-74
2021/12/07 09:41:18;;;;;;;15.20;9.27;;;5.80;99.90;;;;;;2612080;54;20436;-75
2021/12/07 09:43:46;;;;;;;17.43;10.20;;;6.70;99.90;;;;;;2611229;47;20435;-73
2021/12/07 09:46:12;;;;;;;18.53;10.50;;;6.80;99.90;;;;;;2608498;47;20491;-76
2021/12/07 09:48:40;;;;;;;15.43;8.27;;;7.30;99.90;;;;;;2610343;54;20419;-76
2021/12/07 09:51:10;;;;;;;14.47;8.27;;;6.50;99.90;;;;;;2611800;54;20426;-74
2021/12/07 09:53:36;;;;;;;7.80;6.43;;;6.60;99.90;;;;;;2609632;54;20411;-76
2021/12/07 09:56:04;;;;;;;22.00;8.57;;;7.20;99.90;;;;;;2610809;54;20412;-75
2021/12/07 09:58:30;;;;;;;21.20;9.03;;;6.80;99.90;;;;;;2609600;47;21538;-76
2021/12/07 10:00:56;;;;;;;6.57;5.27;;;6.60;99.90;;;;;;2608827;54;20610;-77
2021/12/07 10:03:23;;;;;;;20.77;8.10;;;6.50;99.90;;;;;;2610987;47;20431;-77
2021/12/07 10:05:50;;;;;;;10.60;7.47;;;6.60;99.90;;;;;;2612280;54;20474;-77
2021/12/07 10:08:16;;;;;;;22.00;8.87;;;6.40;99.90;;;;;;2608982;47;20496;-76
2021/12/07 10:10:46;;;;;;;9.50;6.40;;;6.60;99.90;;;;;;2610603;54;20503;-76
2021/12/07 10:13:13;;;;;;;11.80;7.53;;;6.40;99.90;;;;;;2609391;54;20155;-77
2021/12/07 10:15:39;;;;;;;12.27;7.80;;;6.30;99.90;;;;;;2612410;54;20415;-76
2021/12/07 10:18:12;;;;;;;12.90;7.10;;;6.00;99.90;;;;;;2611875;54;20431;-76
2021/12/07 10:20:43;;;;;;;6.97;6.43;;;6.20;99.90;;;;;;2612902;54;20431;-76
2021/12/07 10:23:18;;;;;;;9.60;7.10;;;5.70;99.90;;;;;;2611904;54;20433;-75
2021/12/07 10:25:47;;;;;;;13.80;7.20;;;6.40;99.90;;;;;;2612964;54;20482;-75
2021/12/07 10:28:42;;;;;;;6.57;5.97;;;6.90;99.90;;;;;;2612463;54;20408;-77
2021/12/07 10:31:20;;;;;;;13.03;7.97;;;6.90;99.90;;;;;;2610775;47;20439;-77
2021/12/07 10:34:00;;;;;;;14.00;8.00;;;7.40;99.90;;;;;;2610959;47;20469;-77
2021/12/07 10:36:33;;;;;;;15.23;6.50;;;7.70;99.90;;;;;;2610683;54;20400;-77
2021/12/07 10:39:11;;;;;;;15.30;7.53;;;7.10;99.90;;;;;;2610726;54;20407;-75
2021/12/07 10:42:00;;;;;;;7.80;6.60;;;7.60;99.90;;;;;;2610982;54;20419;-77
2021/12/07 10:44:37;;;;;;;7.90;6.30;;;8.20;99.90;;;;;;2610869;39;21832;-78
2021/12/07 10:47:07;;;;;;;13.83;7.10;;;6.90;99.90;;;;;;2610633;47;20458;-77
2021/12/07 10:49:46;;;;;;;16.57;6.53;;;7.00;99.90;;;;;;2610031;47;20420;-77
2021/12/07 10:52:33;;;;;;;11.80;6.40;;;7.40;99.90;;;;;;2611596;39;20918;-77
2021/12/07 10:55:08;;;;;;;12.50;7.87;;;7.40;99.90;;;;;;2611794;54;20415;-76
2021/12/07 10:57:38;;;;;;;13.03;5.50;;;8.30;99.90;;;;;;2609593;54;20423;-77
2021/12/07 11:00:28;;;;;;;9.00;6.33;;;9.00;99.90;;;;;;2611734;54;20415;-76
2021/12/07 11:03:02;;;;;;;25.63;7.33;;;10.00;99.90;;;;;;2611072;54;21033;-76
2021/12/07 11:05:30;;;;;;;8.50;5.90;;;10.10;99.90;;;;;;2610760;47;20479;-77
2021/12/07 11:07:57;;;;;;;25.13;7.10;;;10.70;99.90;;;;;;2610147;54;20466;-75
2021/12/07 11:10:29;;;;;;;7.10;5.20;;;10.90;99.90;;;;;;2610834;54;20438;-76
2021/12/07 11:13:16;;;;;;;13.83;6.30;;;11.00;99.90;;;;;;2611251;54;20403;-77
2021/12/07 11:15:53;;;;;;;13.23;6.00;;;12.10;99.90;;;;;;2611648;54;20480;-76
2021/12/07 11:18:38;;;;;;;14.40;6.30;;;11.40;98.60;;;;;;2610008;47;20407;-74
2021/12/07 11:21:10;;;;;;;6.50;3.13;;;11.50;97.60;;;;;;2610063;54;20522;-76
2021/12/07 11:23:41;;;;;;;11.33;5.00;;;9.30;99.90;;;;;;2610033;47;20955;-76
2021/12/07 11:31:49;;;;;;;14.07;4.67;;;11.30;99.80;;;;;;2610681;39;20813;-75
2021/12/07 11:34:18;;;;;;;8.37;4.53;;;10.80;99.90;;;;;;2610427;54;21003;-76
2021/12/07 11:36:48;;;;;;;19.20;6.70;;;10.40;99.90;;;;;;2611958;54;20423;-75
2021/12/07 11:39:19;;;;;;;12.50;5.63;;;9.90;99.90;;;;;;2611760;54;20431;-76
2021/12/07 11:41:48;;;;;;;11.30;6.10;;;9.80;99.90;;;;;;2611235;47;20438;-77
2021/12/07 11:44:15;;;;;;;13.13;6.20;;;10.80;99.90;;;;;;2611735;54;20428;-75
2021/12/07 11:46:47;;;;;;;20.93;4.90;;;11.10;99.90;;;;;;2611203;54;20409;-76
2021/12/07 11:49:25;;;;;;;9.27;4.90;;;11.90;97.90;;;;;;2612775;39;21053;-75
2021/12/07 11:51:54;;;;;;;14.80;7.53;;;10.90;99.90;;;;;;2610911;47;20427;-76
2021/12/07 11:54:26;;;;;;;11.70;6.23;;;11.20;99.90;;;;;;2610434;47;20428;-73
2021/12/07 11:56:52;;;;;;;10.70;5.57;;;10.70;99.90;;;;;;2610216;47;20479;-76
2021/12/07 11:59:19;;;;;;;13.27;5.00;;;9.50;99.90;;;;;;2612430;54;20422;-75
2021/12/07 12:01:47;;;;;;;9.90;6.20;;;8.60;99.90;;;;;;2610421;54;21310;-75
2021/12/07 12:04:17;;;;;;;14.90;6.43;;;8.50;99.90;;;;;;2612470;54;20428;-77
2021/12/07 12:06:47;;;;;;;10.97;6.60;;;8.50;99.90;;;;;;2611739;54;20541;-75
2021/12/07 12:09:14;;;;;;;12.23;6.10;;;8.70;99.90;;;;;;2611886;54;20399;-76
2021/12/07 12:12:09;;;;;;;9.13;6.50;;;8.70;99.90;;;;;;2611814;54;20396;-75
2021/12/07 12:14:37;;;;;;;12.40;5.60;;;8.50;99.90;;;;;;2613227;54;20419;-75
2021/12/07 12:17:31;;;;;;;6.37;4.90;;;7.80;99.90;;;;;;2612857;54;20427;-76
2021/12/07 12:20:17;;;;;;;9.30;4.73;;;8.70;99.90;;;;;;2611092;54;20445;-75
2021/12/07 12:22:50;;;;;;;6.27;5.00;;;8.40;99.90;;;;;;2611233;47;21071;-75
2021/12/07 12:25:19;;;;;;;9.60;5.47;;;9.90;99.90;;;;;;2611060;39;20829;-75
2021/12/07 12:27:47;;;;;;;16.53;5.13;;;10.20;99.90;;;;;;2610268;46;20480;-76
2021/12/07 12:30:27;;;;;;;9.20;4.60;;;10.90;99.90;;;;;;2611707;39;20797;-76
2021/12/07 12:32:59;;;;;;;12.67;5.10;;;9.90;99.90;;;;;;2610522;46;20466;-76
2021/12/07 12:35:28;;;;;;;7.77;4.50;;;8.50;99.90;;;;;;2612387;54;20415;-75
2021/12/07 12:37:54;;;;;;;9.17;5.77;;;8.90;99.90;;;;;;2610685;54;20402;-75
2021/12/07 12:40:32;;;;;;;13.40;5.77;;;8.80;99.90;;;;;;2611542;51;20438;-75
2021/12/07 12:43:02;;;;;;;14.60;5.70;;;8.10;99.90;;;;;;2611578;54;20419;-75
2021/12/07 12:45:35;;;;;;;14.40;6.03;;;7.60;99.90;;;;;;2610121;39;20901;-76
2021/12/07 12:48:11;;;;;;;12.73;5.20;;;7.40;99.90;;;;;;2611720;54;21104;-75
2021/12/07 12:50:37;;;;;;;12.87;5.90;;;8.00;99.90;;;;;;2611541;47;20514;-75
2021/12/07 12:53:09;;;;;;;13.93;6.00;;;9.60;99.90;;;;;;2610257;54;20415;-77
2021/12/07 12:55:45;;;;;;;12.23;4.53;;;10.30;99.90;;;;;;2609576;47;20182;-75
2021/12/07 12:58:26;;;;;;;8.63;5.13;;;9.50;99.90;;;;;;2609616;47;20937;-76
2021/12/07 13:01:08;;;;;;;7.77;5.67;;;10.60;99.90;;;;;;2609218;47;20456;-76
2021/12/07 13:03:55;;;;;;;14.67;5.00;;;10.00;99.90;;;;;;2611707;47;20480;-77
2021/12/07 13:06:33;;;;;;;16.63;5.90;;;10.20;99.90;;;;;;2611469;47;20441;-80
2021/12/07 13:09:03;;;;;;;8.83;4.23;;;9.40;99.90;;;;;;2610733;47;20418;-74
2021/12/07 13:11:45;;;;;;;11.03;3.50;;;9.70;99.90;;;;;;2610988;47;20411;-77
2021/12/07 13:14:27;;;;;;;5.10;3.30;;;9.60;99.90;;;;;;2611049;54;20423;-76
2021/12/07 13:17:14;;;;;;;11.83;4.50;;;9.40;99.90;;;;;;2611103;47;21018;-75
2021/12/07 13:20:11;;;;;;;9.30;5.13;;;10.00;99.90;;;;;;2611521;54;20407;-75
2021/12/07 13:22:38;;;;;;;8.57;5.00;;;9.50;99.90;;;;;;2611383;39;21024;-75
2021/12/07 13:25:13;;;;;;;11.00;5.23;;;9.00;99.90;;;;;;2608924;54;20415;-75
2021/12/07 13:28:02;;;;;;;14.33;5.47;;;8.60;99.90;;;;;;2612068;47;20427;-76
2021/12/07 13:30:56;;;;;;;8.23;4.67;;;9.50;99.90;;;;;;2611133;47;20475;-75
2021/12/07 13:33:38;;;;;;;12.73;4.80;;;10.10;99.90;;;;;;2611111;47;20968;-76
2021/12/07 13:36:30;;;;;;;7.10;4.80;;;10.30;99.90;;;;;;2608497;47;20435;-77
2021/12/07 13:39:20;;;;;;;12.23;4.60;;;9.70;99.90;;;;;;2611487;47;20461;-76
2021/12/07 13:41:54;;;;;;;7.20;5.57;;;9.40;99.90;;;;;;2609663;54;20534;-76
2021/12/07 13:44:20;;;;;;;8.83;4.60;;;9.20;99.90;;;;;;2610499;47;20411;-75
2021/12/07 13:46:46;;;;;;;11.50;5.43;;;9.40;99.90;;;;;;2607837;54;20425;-75
2021/12/07 13:49:14;;;;;;;6.87;4.63;;;9.30;99.90;;;;;;2610465;47;20281;-75
2021/12/07 13:51:40;;;;;;;10.83;4.03;;;9.10;99.90;;;;;;2612453;39;20815;-77
2021/12/07 13:54:14;;;;;;;7.03;3.70;;;8.90;99.90;;;;;;2611078;47;20435;-75
2021/12/07 13:56:41;;;;;;;7.87;3.83;;;8.70;99.90;;;;;;2611382;54;20429;-75
2021/12/07 13:59:12;;;;;;;5.20;3.33;;;8.00;99.90;;;;;;2610763;54;20953;-75
2021/12/07 14:01:41;;;;;;;9.20;4.30;;;7.90;99.90;;;;;;2610532;54;20543;-75
2021/12/07 14:04:08;;;;;;;14.80;5.77;;;8.10;99.90;;;;;;2609770;50;20450;-75
2021/12/07 14:06:35;;;;;;;8.17;4.83;;;8.00;99.90;;;;;;2610116;54;20444;-75
2021/12/07 14:09:11;;;;;;;8.07;4.57;;;7.90;99.90;;;;;;2611839;54;20399;-74
2021/12/07 14:11:38;;;;;;;7.20;4.13;;;7.50;99.90;;;;;;2611434;54;20419;-75
2021/12/07 14:14:09;;;;;;;6.07;3.70;;;7.20;99.90;;;;;;2609551;54;20456;-76
2021/12/07 14:16:35;;;;;;;9.00;4.88;;;7.10;99.90;;;;;;2609551;54;21020;-73
2021/12/07 14:19:01;;;;;;;8.20;4.70;;;7.00;99.90;;;;;;2608747;54;20412;-74
2021/12/07 14:21:29;;;;;;;6.07;4.43;;;7.10;99.90;;;;;;2610211;54;20166;-75
2021/12/07 14:24:04;;;;;;;6.70;3.30;;;7.00;99.90;;;;;;2610370;54;20182;-75
2021/12/07 14:26:30;;;;;;;6.57;4.40;;;6.90;99.90;;;;;;2611238;54;21062;-74
2021/12/07 14:29:03;;;;;;;7.20;3.67;;;6.80;99.90;;;;;;2610183;54;20403;-75
2021/12/07 14:31:35;;;;;;;4.40;2.90;;;6.40;99.90;;;;;;2610498;39;20501;-73
2021/12/07 14:34:10;;;;;;;3.73;2.33;;;6.20;99.90;;;;;;2608728;47;21038;-74
2021/12/07 14:36:41;;;;;;;5.90;2.80;;;6.20;99.90;;;;;;2612412;39;20846;-74
2021/12/07 14:39:14;;;;;;;11.77;3.17;;;6.10;99.90;;;;;;2610735;47;20470;-74
2021/12/07 14:41:42;;;;;;;10.70;3.23;;;6.10;99.90;;;;;;2608740;39;20888;-74
2021/12/07 14:44:10;;;;;;;8.50;3.30;;;6.10;99.90;;;;;;2608586;47;20523;-75
2021/12/07 14:46:37;;;;;;;5.73;3.30;;;6.10;99.90;;;;;;2611565;31;21136;-74
2021/12/07 14:49:03;;;;;;;4.33;2.80;;;5.90;99.90;;;;;;2612108;54;20407;-74
2021/12/07 14:51:30;;;;;;;3.17;2.80;;;5.90;99.90;;;;;;2611389;54;20423;-74